createdAt,value
2022-10-12T00:02:03.051Z,5.72
2022-10-12T00:04:31.057Z,5.07
2022-10-12T00:06:58.957Z,5.18
2022-10-12T00:09:26.720Z,5.43
2022-10-12T00:11:54.521Z,5.07
2022-10-12T00:14:23.600Z,5.75
2022-10-12T00:16:51.426Z,5.35
2022-10-12T00:19:19.140Z,4.90
2022-10-12T00:21:47.027Z,4.97
2022-10-12T00:24:14.747Z,5.65
2022-10-12T00:26:42.489Z,5.60
2022-10-12T00:29:10.683Z,5.55
2022-10-12T00:31:39.864Z,4.72
2022-10-12T00:34:07.571Z,4.97
2022-10-12T00:36:36.645Z,4.70
2022-10-12T00:39:08.163Z,5.20
2022-10-12T00:41:37.876Z,4.80
2022-10-12T00:44:05.947Z,4.95
2022-10-12T00:46:37.051Z,4.63
2022-10-12T00:49:13.680Z,5.57
2022-10-12T00:51:45.294Z,4.97
2022-10-12T00:54:17.503Z,5.78
2022-10-12T00:56:47.926Z,5.07
2022-10-12T00:59:19.971Z,4.88
2022-10-12T01:01:47.736Z,4.75
2022-10-12T01:04:16.854Z,4.95
2022-10-12T01:06:44.794Z,4.65
2022-10-12T01:09:12.715Z,4.70
2022-10-12T01:11:40.454Z,5.07
2022-10-12T01:14:09.237Z,6.28
2022-10-12T01:16:43.252Z,4.88
2022-10-12T01:19:29.253Z,4.95
2022-10-12T01:22:03.386Z,4.80
2022-10-12T01:24:50.840Z,4.82
2022-10-12T01:27:32.383Z,4.68
2022-10-12T01:30:26.635Z,5.05
2022-10-12T01:33:35.977Z,4.63
2022-10-12T01:36:10.688Z,4.88
2022-10-12T01:38:46.053Z,5.25
2022-10-12T01:41:19.542Z,5.20
2022-10-12T01:43:47.723Z,5.40
2022-10-12T01:46:43.071Z,4.82
2022-10-12T01:49:11.843Z,5.00
2022-10-12T01:51:52.962Z,4.97
2022-10-12T01:54:28.863Z,4.47
2022-10-12T01:57:03.868Z,5.27
2022-10-12T01:59:43.139Z,5.10
2022-10-12T02:02:19.545Z,5.40
2022-10-12T02:04:53.038Z,5.72
2022-10-12T02:07:27.122Z,5.82
2022-10-12T02:09:59.632Z,5.60
2022-10-12T02:12:31.183Z,5.30
2022-10-12T02:15:03.830Z,4.78
2022-10-12T02:17:36.040Z,5.43
2022-10-12T02:20:07.025Z,5.03
2022-10-12T02:22:39.306Z,5.55
2022-10-12T02:25:11.410Z,5.57
2022-10-12T02:27:44.531Z,4.93
2022-10-12T02:30:13.227Z,5.03
2022-10-12T02:32:49.471Z,4.20
2022-10-12T02:35:25.443Z,5.43
2022-10-12T02:37:57.308Z,5.35
2022-10-12T02:40:33.026Z,4.85
2022-10-12T02:43:11.527Z,5.60
2022-10-12T02:45:42.132Z,5.38
2022-10-12T02:48:16.146Z,4.90
2022-10-12T02:50:44.325Z,4.93
2022-10-12T02:53:12.596Z,4.20
2022-10-12T02:55:48.631Z,4.68
2022-10-12T02:58:16.665Z,4.53
2022-10-12T03:00:44.483Z,5.55
2022-10-12T03:03:13.648Z,5.32
2022-10-12T03:05:41.509Z,4.57
2022-10-12T03:08:09.263Z,4.60
2022-10-12T03:10:36.995Z,5.10
2022-10-12T03:13:04.738Z,5.07
2022-10-12T03:15:32.490Z,4.75
2022-10-12T03:18:00.191Z,5.47
2022-10-12T03:20:29.482Z,4.43
2022-10-12T03:22:57.191Z,4.78
2022-10-12T03:25:25.052Z,5.05
2022-10-12T03:27:52.808Z,4.93
2022-10-12T03:30:20.600Z,5.75
2022-10-12T03:32:48.305Z,4.60
2022-10-12T03:35:16.661Z,4.45
2022-10-12T03:37:45.749Z,4.65
2022-10-12T03:40:14.109Z,5.18
2022-10-12T03:42:41.907Z,4.63
2022-10-12T03:45:10.535Z,4.45
2022-10-12T03:47:38.950Z,4.80
2022-10-12T03:50:07.735Z,4.82
2022-10-12T03:52:35.434Z,5.28
2022-10-12T03:55:04.923Z,4.75
2022-10-12T03:57:32.815Z,4.93
2022-10-12T04:00:00.478Z,5.10
2022-10-12T04:02:28.261Z,5.00
2022-10-12T04:04:55.972Z,5.63
2022-10-12T04:07:23.745Z,5.00
2022-10-12T04:09:51.471Z,4.30
2022-10-12T04:12:20.565Z,5.00
2022-10-12T04:14:48.279Z,5.50
2022-10-12T04:17:16.243Z,5.20
2022-10-12T04:19:44.370Z,5.15
2022-10-12T04:22:12.412Z,4.50
2022-10-12T04:24:40.124Z,4.70
2022-10-12T04:27:07.831Z,5.00
2022-10-12T04:29:37.250Z,4.68
2022-10-12T04:32:08.772Z,4.40
2022-10-12T04:34:39.419Z,5.25
2022-10-12T04:37:07.558Z,5.97
2022-10-12T04:39:35.315Z,4.50
2022-10-12T04:42:03.236Z,4.70
2022-10-12T04:44:32.396Z,4.82
2022-10-12T04:47:01.921Z,4.85
2022-10-12T04:49:29.800Z,4.03
2022-10-12T04:51:57.634Z,5.07
2022-10-12T04:54:25.375Z,4.60
2022-10-12T04:56:53.095Z,4.20
2022-10-12T04:59:20.822Z,5.00
2022-10-12T05:01:48.558Z,4.53
2022-10-12T05:04:17.722Z,4.47
2022-10-12T05:06:45.444Z,4.70
2022-10-12T05:09:16.101Z,4.57
2022-10-12T05:11:44.935Z,5.25
2022-10-12T05:14:12.854Z,5.13
2022-10-12T05:16:40.606Z,4.40
2022-10-12T05:19:08.428Z,4.30
2022-10-12T05:21:39.412Z,4.95
2022-10-12T05:24:07.852Z,4.03
2022-10-12T05:26:35.744Z,4.82
2022-10-12T05:29:03.775Z,4.63
2022-10-12T05:31:31.756Z,4.68
2022-10-12T05:33:59.470Z,4.57
2022-10-12T05:36:27.178Z,4.90
2022-10-12T05:38:56.351Z,3.80
2022-10-12T05:41:24.095Z,4.30
2022-10-12T05:43:53.251Z,4.03
2022-10-12T05:46:21.032Z,3.88
2022-10-12T05:48:48.872Z,3.97
2022-10-12T05:51:16.682Z,3.70
2022-10-12T05:53:44.629Z,4.00
2022-10-12T05:56:13.734Z,3.78
2022-10-12T05:58:42.281Z,4.05
2022-10-12T06:01:12.482Z,4.07
2022-10-12T06:03:40.277Z,4.35
2022-10-12T06:06:08.520Z,4.57
2022-10-12T06:08:36.595Z,4.18
2022-10-12T06:11:04.738Z,4.45
2022-10-12T06:13:33.958Z,4.43
2022-10-12T06:16:01.763Z,4.78
2022-10-12T06:18:29.723Z,4.18
2022-10-12T06:21:28.306Z,4.15
2022-10-12T06:23:45.246Z,3.83
2022-10-12T06:26:13.096Z,4.28
2022-10-12T06:28:42.257Z,4.55
2022-10-12T06:31:10.622Z,4.22
2022-10-12T06:33:38.368Z,3.70
2022-10-12T06:36:06.434Z,3.95
2022-10-12T06:38:34.187Z,4.05
2022-10-12T06:41:01.894Z,4.47
2022-10-12T06:43:29.612Z,4.65
2022-10-12T06:46:02.200Z,3.97
2022-10-12T06:48:30.746Z,4.53
2022-10-12T06:50:58.809Z,4.03
2022-10-12T06:53:28.752Z,4.22
2022-10-12T06:55:56.650Z,4.57
2022-10-12T06:58:24.454Z,4.18
2022-10-12T07:00:53.613Z,4.45
2022-10-12T07:03:22.675Z,3.90
2022-10-12T07:05:50.394Z,4.38
2022-10-12T07:08:18.101Z,3.78
2022-10-12T07:10:45.848Z,4.57
2022-10-12T07:13:13.547Z,4.75
2022-10-12T07:15:41.427Z,3.95
2022-10-12T07:18:09.158Z,3.88
2022-10-12T07:20:40.398Z,4.32
2022-10-12T07:23:08.738Z,4.60
2022-10-12T07:25:36.576Z,4.60
2022-10-12T07:28:06.104Z,4.70
2022-10-12T07:30:33.963Z,4.25
2022-10-12T07:33:01.740Z,3.72
2022-10-12T07:35:29.478Z,4.40
2022-10-12T07:37:58.713Z,4.28
2022-10-12T07:40:27.023Z,4.18
2022-10-12T07:43:14.850Z,4.47
2022-10-12T07:45:42.668Z,3.90
2022-10-12T07:48:10.844Z,4.18
2022-10-12T07:50:38.913Z,4.28
2022-10-12T07:53:08.013Z,4.93
2022-10-12T07:55:35.791Z,4.15
2022-10-12T07:58:03.807Z,4.03
2022-10-12T08:00:32.132Z,4.55
2022-10-12T08:03:00.244Z,4.32
2022-10-12T08:05:28.514Z,3.95
2022-10-12T08:07:56.301Z,4.45
2022-10-12T08:10:25.442Z,4.53
2022-10-12T08:12:53.133Z,4.95
2022-10-12T08:15:20.964Z,4.18
2022-10-12T08:17:48.699Z,3.88
2022-10-12T08:20:16.469Z,4.78
2022-10-12T08:22:44.265Z,5.20
2022-10-12T08:25:12.075Z,4.22
2022-10-12T08:27:41.615Z,4.47
2022-10-12T08:30:10.598Z,4.00
2022-10-12T08:32:38.402Z,4.47
2022-10-12T08:35:07.113Z,4.22
2022-10-12T08:37:34.853Z,5.03
2022-10-12T08:40:03.757Z,4.90
2022-10-12T08:42:41.499Z,5.32
2022-10-12T08:45:30.772Z,5.85
2022-10-12T08:48:02.939Z,5.65
2022-10-12T08:50:35.716Z,5.03
2022-10-12T08:53:12.590Z,5.72
2022-10-12T08:58:16.937Z,6.70
2022-10-12T09:00:50.429Z,5.22
2022-10-12T09:03:31.245Z,5.18
2022-10-12T09:06:07.780Z,4.43
2022-10-12T09:08:50.569Z,4.13
2022-10-12T09:11:29.744Z,5.53
2022-10-12T09:14:06.706Z,5.75
2022-10-12T09:16:39.358Z,6.20
2022-10-12T09:19:16.483Z,5.30
2022-10-12T09:21:47.334Z,5.53
2022-10-12T09:24:18.237Z,5.57
2022-10-12T09:26:47.949Z,5.82
2022-10-12T09:29:26.792Z,5.38
2022-10-12T09:32:21.395Z,5.22
2022-10-12T09:34:50.176Z,5.25
2022-10-12T09:37:21.831Z,5.60
2022-10-12T09:39:50.383Z,5.70
2022-10-12T09:42:18.237Z,6.38
2022-10-12T09:44:49.207Z,5.40
2022-10-12T09:47:30.280Z,5.18
2022-10-12T09:49:59.442Z,5.05
2022-10-12T09:52:31.209Z,5.35
2022-10-12T09:55:04.835Z,4.63
2022-10-12T09:57:37.419Z,4.60
2022-10-12T10:00:08.779Z,5.72
2022-10-12T10:02:49.619Z,5.07
2022-10-12T10:05:26.345Z,4.75
2022-10-12T10:07:54.801Z,4.60
2022-10-12T10:10:29.756Z,4.85
2022-10-12T10:13:01.184Z,4.63
2022-10-12T10:15:32.847Z,5.18
2022-10-12T10:18:04.586Z,4.50
2022-10-12T10:20:44.382Z,4.63
2022-10-12T10:23:26.394Z,4.97
2022-10-12T10:25:59.859Z,4.70
2022-10-12T10:28:31.070Z,4.65
2022-10-12T10:31:02.848Z,4.90
2022-10-12T10:33:33.182Z,4.93
2022-10-12T10:36:04.180Z,4.25
2022-10-12T10:38:34.068Z,4.13
2022-10-12T10:41:06.921Z,5.03
2022-10-12T10:43:36.031Z,4.60
2022-10-12T10:46:05.584Z,4.78
2022-10-12T10:48:50.988Z,4.30
2022-10-12T10:51:18.890Z,4.50
2022-10-12T10:53:48.452Z,3.75
2022-10-12T10:56:21.912Z,3.80
2022-10-12T10:58:53.142Z,3.60
2022-10-12T11:01:25.880Z,3.75
2022-10-12T11:04:00.976Z,4.60
2022-10-12T11:06:37.264Z,3.95
2022-10-12T11:09:09.054Z,4.10
2022-10-12T11:11:39.238Z,3.97
2022-10-12T11:14:15.435Z,4.13
2022-10-12T11:16:48.427Z,3.65
2022-10-12T11:19:31.410Z,4.75
2022-10-12T11:22:03.709Z,5.15
2022-10-12T11:24:37.055Z,4.68
2022-10-12T11:27:11.670Z,4.93
2022-10-12T11:29:39.987Z,4.57
2022-10-12T11:32:23.845Z,3.95
2022-10-12T11:34:56.430Z,4.43
2022-10-12T11:37:29.532Z,3.95
2022-10-12T11:40:00.330Z,4.85
2022-10-12T11:42:32.600Z,5.55
2022-10-12T11:45:06.707Z,5.70
2022-10-12T11:47:41.752Z,4.18
2022-10-12T11:50:25.675Z,4.10
2022-10-12T11:52:55.802Z,4.22
2022-10-12T11:55:37.126Z,4.85
2022-10-12T11:58:13.715Z,4.57
2022-10-12T12:00:54.393Z,4.03
2022-10-12T12:03:30.535Z,5.00
2022-10-12T12:06:37.987Z,4.97
2022-10-12T12:09:19.743Z,3.87
2022-10-12T12:11:47.607Z,3.80
2022-10-12T12:14:48.392Z,5.35
2022-10-12T12:17:29.362Z,3.83
2022-10-12T12:20:00.860Z,3.50
2022-10-12T12:22:35.292Z,4.00
2022-10-12T12:25:20.158Z,4.03
2022-10-12T12:27:51.213Z,4.05
2022-10-12T12:30:30.660Z,3.50
2022-10-12T12:33:01.064Z,3.72
2022-10-12T12:35:32.629Z,3.47
2022-10-12T12:38:23.695Z,3.05
2022-10-12T12:41:16.549Z,3.97
2022-10-12T12:44:03.944Z,3.75
2022-10-12T12:47:33.073Z,3.30
2022-10-12T12:50:00.355Z,3.13
2022-10-12T12:52:30.600Z,3.30
2022-10-12T12:55:20.253Z,2.88
2022-10-12T12:58:05.020Z,2.78
2022-10-12T13:00:39.025Z,3.40
2022-10-12T13:03:39.527Z,2.67
2022-10-12T13:06:57.138Z,4.05
2022-10-12T13:09:40.768Z,3.38
2022-10-12T13:12:23.046Z,4.30
2022-10-12T13:15:12.517Z,2.72
2022-10-12T13:18:00.342Z,3.03
2022-10-12T13:20:32.014Z,2.85
2022-10-12T13:23:03.498Z,3.05
2022-10-12T13:25:37.216Z,3.75
2022-10-12T13:28:13.204Z,2.97
2022-10-12T13:30:47.924Z,3.35
2022-10-12T13:33:22.331Z,2.67
2022-10-12T13:35:56.769Z,3.53
2022-10-12T13:38:26.834Z,2.88
2022-10-12T13:41:02.367Z,2.83
2022-10-12T13:43:35.427Z,3.03
2022-10-12T13:46:03.741Z,3.28
2022-10-12T13:48:58.329Z,3.15
2022-10-12T13:51:25.346Z,3.03
2022-10-12T13:53:53.525Z,2.22
2022-10-12T13:56:24.293Z,2.78
2022-10-12T13:58:58.915Z,2.92
2022-10-12T14:01:27.053Z,2.97
2022-10-12T14:04:04.394Z,2.45
2022-10-12T14:06:34.208Z,3.10
2022-10-12T14:09:09.471Z,2.47
2022-10-12T14:11:38.348Z,3.28
2022-10-12T14:14:08.465Z,3.95
2022-10-12T14:16:36.205Z,2.60
2022-10-12T14:19:19.999Z,2.25
2022-10-12T14:21:49.625Z,3.20
2022-10-12T14:24:20.259Z,2.67
2022-10-12T14:26:55.866Z,2.33
2022-10-12T14:29:33.140Z,2.53
2022-10-12T14:32:03.205Z,3.13
2022-10-12T14:34:36.633Z,2.45
2022-10-12T14:37:06.533Z,2.45
2022-10-12T14:39:34.571Z,2.40
2022-10-12T14:42:04.809Z,3.00
2022-10-12T14:44:44.141Z,2.90
2022-10-12T14:47:19.067Z,3.38
2022-10-12T14:49:49.122Z,2.17
2022-10-12T14:52:22.107Z,2.72
2022-10-12T14:54:54.018Z,2.38
2022-10-12T14:57:22.930Z,2.70
2022-10-12T14:59:52.275Z,2.50
2022-10-12T15:02:21.925Z,2.72
2022-10-12T15:04:49.901Z,2.70
2022-10-12T15:07:19.804Z,2.72
2022-10-12T15:09:48.280Z,3.00
2022-10-12T15:12:19.082Z,3.05
2022-10-12T15:14:47.739Z,2.92
2022-10-12T15:17:18.360Z,3.70
2022-10-12T15:19:50.367Z,3.88
2022-10-12T15:22:20.714Z,4.05
2022-10-12T15:24:49.176Z,3.45
2022-10-12T15:27:16.990Z,3.43
2022-10-12T15:29:45.757Z,4.30
2022-10-12T15:32:15.339Z,3.50
2022-10-12T15:34:44.692Z,3.67
2022-10-12T15:37:13.128Z,3.47
2022-10-12T15:39:42.663Z,3.53
2022-10-12T15:42:12.816Z,3.05
2022-10-12T15:44:42.307Z,3.95
2022-10-12T15:47:11.284Z,2.92
2022-10-12T15:49:39.352Z,2.85
2022-10-12T15:52:12.152Z,3.28
2022-10-12T15:54:39.907Z,3.42
2022-10-12T15:57:08.049Z,3.58
2022-10-12T15:59:36.100Z,3.75
2022-10-12T16:02:03.969Z,3.30
2022-10-12T16:04:31.709Z,3.67
2022-10-12T16:07:01.361Z,3.25
2022-10-12T16:09:30.444Z,2.65
2022-10-12T16:11:58.162Z,3.50
2022-10-12T16:14:25.959Z,2.95
2022-10-12T16:16:53.784Z,3.05
2022-10-12T16:19:21.583Z,2.95
2022-10-12T16:21:49.660Z,3.00
2022-10-12T16:24:18.360Z,3.00
2022-10-12T16:26:49.923Z,2.88
2022-10-12T16:29:17.653Z,3.65
2022-10-12T16:31:45.504Z,3.28
2022-10-12T16:34:13.219Z,2.63
2022-10-12T16:36:40.958Z,2.22
2022-10-12T16:39:08.922Z,3.10
2022-10-12T16:41:36.619Z,3.53
2022-10-12T16:44:05.747Z,2.80
2022-10-12T16:46:33.581Z,2.90
2022-10-12T16:49:01.325Z,2.60
2022-10-12T16:51:29.101Z,3.10
2022-10-12T16:53:57.771Z,2.55
2022-10-12T16:56:25.559Z,3.30
2022-10-12T16:58:53.426Z,2.58
2022-10-12T17:01:22.832Z,2.47
2022-10-12T17:03:50.631Z,3.20
2022-10-12T17:06:18.355Z,3.35
2022-10-12T17:08:46.178Z,2.80
2022-10-12T17:11:16.986Z,3.00
2022-10-12T17:13:49.011Z,2.75
2022-10-12T17:16:35.588Z,3.20
2022-10-12T17:19:04.771Z,3.10
2022-10-12T17:21:32.607Z,3.63
2022-10-12T17:24:01.617Z,3.40
2022-10-12T17:26:29.972Z,3.08
2022-10-12T17:28:58.080Z,3.78
2022-10-12T17:31:26.304Z,3.10
2022-10-12T17:33:54.361Z,3.85
2022-10-12T17:36:28.038Z,2.80
2022-10-12T17:38:57.151Z,2.85
2022-10-12T17:41:25.472Z,3.70
2022-10-12T17:43:53.247Z,3.15
2022-10-12T17:46:22.677Z,3.17
2022-10-12T17:48:50.860Z,3.17
2022-10-12T17:51:18.846Z,2.70
2022-10-12T17:53:48.073Z,3.40
2022-10-12T17:56:16.497Z,3.33
2022-10-12T17:58:44.578Z,3.60
2022-10-12T18:01:15.285Z,3.20
2022-10-12T18:03:46.194Z,3.30
2022-10-12T18:06:15.786Z,3.35
2022-10-12T18:08:44.823Z,3.55
2022-10-12T18:11:15.051Z,3.42
2022-10-12T18:13:47.256Z,3.78
2022-10-12T18:16:16.671Z,3.55
2022-10-12T18:18:44.472Z,4.32
2022-10-12T18:21:14.304Z,3.97
2022-10-12T18:23:42.297Z,3.72
2022-10-12T18:26:11.934Z,3.97
2022-10-12T18:28:41.439Z,4.55
2022-10-12T18:31:09.486Z,3.80
2022-10-12T18:33:37.190Z,4.20
2022-10-12T18:36:07.413Z,4.07
2022-10-12T18:38:35.723Z,3.60
2022-10-12T18:41:04.414Z,3.72
2022-10-12T18:43:32.267Z,4.30
2022-10-12T18:46:01.624Z,3.70
2022-10-12T18:48:29.384Z,4.60
2022-10-12T18:50:57.637Z,4.70
2022-10-12T18:53:28.129Z,4.30
2022-10-12T18:55:55.868Z,4.85
2022-10-12T18:58:23.555Z,4.60
2022-10-12T19:00:52.356Z,5.28
2022-10-12T19:03:21.649Z,4.60
2022-10-12T19:05:49.451Z,4.45
2022-10-12T19:08:17.305Z,4.70
2022-10-12T19:10:45.035Z,4.95
2022-10-12T19:13:13.004Z,5.30
2022-10-12T19:15:40.723Z,5.63
2022-10-12T19:18:08.451Z,5.60
2022-10-12T19:20:38.473Z,5.13
2022-10-12T19:23:06.236Z,4.72
2022-10-12T19:25:38.142Z,5.85
2022-10-12T19:28:05.963Z,5.88
2022-10-12T19:30:33.750Z,5.30
2022-10-12T19:33:01.509Z,4.88
2022-10-12T19:35:29.245Z,5.95
2022-10-12T19:37:58.369Z,5.28
2022-10-12T19:40:26.155Z,5.57
2022-10-12T19:42:53.883Z,5.63
2022-10-12T19:45:21.597Z,6.07
2022-10-12T19:47:49.321Z,6.05
2022-10-12T19:50:18.198Z,5.75
2022-10-12T19:52:46.163Z,5.80
2022-10-12T19:55:17.246Z,6.28
2022-10-12T19:57:48.388Z,5.70
2022-10-12T20:00:17.079Z,6.65
2022-10-12T20:02:44.958Z,6.03
2022-10-12T20:05:13.015Z,6.63
2022-10-12T20:07:40.915Z,6.70
2022-10-12T20:10:09.619Z,6.13
2022-10-12T20:12:38.720Z,5.82
2022-10-12T20:15:07.874Z,5.82
2022-10-12T20:17:36.636Z,6.32
2022-10-12T20:20:04.787Z,6.28
2022-10-12T20:22:32.636Z,6.18
2022-10-12T20:25:00.415Z,5.45
2022-10-12T20:27:28.234Z,6.30
2022-10-12T20:29:57.396Z,6.22
2022-10-12T20:32:25.132Z,5.43
2022-10-12T20:34:53.227Z,5.40
2022-10-12T20:37:21.763Z,6.28
2022-10-12T20:39:52.898Z,5.97
2022-10-12T20:42:22.173Z,5.82
2022-10-12T20:44:50.495Z,6.07
2022-10-12T20:47:19.631Z,6.28
2022-10-12T20:49:48.592Z,7.10
2022-10-12T20:52:16.836Z,5.80
2022-10-12T20:54:45.008Z,6.18
2022-10-12T20:57:12.746Z,6.78
2022-10-12T20:59:42.272Z,6.35
2022-10-12T21:02:10.663Z,5.43
2022-10-12T21:04:40.166Z,6.72
2022-10-12T21:07:07.887Z,6.40
2022-10-12T21:09:35.722Z,6.60
2022-10-12T21:12:03.467Z,6.30
2022-10-12T21:14:31.308Z,7.13
2022-10-12T21:16:59.112Z,6.43
2022-10-12T21:19:27.031Z,6.20
2022-10-12T21:21:56.448Z,5.47
2022-10-12T21:24:24.517Z,7.30
2022-10-12T21:26:53.163Z,6.60
2022-10-12T21:29:21.040Z,6.38
2022-10-12T21:31:48.797Z,6.68
2022-10-12T21:34:16.596Z,6.47
2022-10-12T21:36:44.310Z,6.32
2022-10-12T21:39:15.639Z,6.85
2022-10-12T21:41:44.002Z,5.97
2022-10-12T21:44:12.708Z,6.25
2022-10-12T21:46:40.421Z,6.57
2022-10-12T21:49:08.890Z,6.38
2022-10-12T21:51:37.679Z,6.53
2022-10-12T21:54:06.653Z,6.63
2022-10-12T21:56:37.338Z,7.35
2022-10-12T21:59:07.051Z,6.90
2022-10-12T22:01:37.136Z,6.15
2022-10-12T22:04:07.550Z,6.40
2022-10-12T22:06:36.092Z,7.10
2022-10-12T22:09:06.117Z,5.97
2022-10-12T22:11:37.200Z,6.28
2022-10-12T22:14:07.088Z,6.50
2022-10-12T22:16:35.343Z,6.63
2022-10-12T22:19:05.462Z,7.00
2022-10-12T22:21:33.808Z,6.07
2022-10-12T22:24:02.667Z,6.53
2022-10-12T22:26:30.892Z,6.68
2022-10-12T22:29:00.801Z,6.38
2022-10-12T22:31:29.027Z,6.32
2022-10-12T22:33:57.621Z,6.50
2022-10-12T22:36:25.351Z,5.82
2022-10-12T22:38:53.497Z,6.05
2022-10-12T22:41:23.757Z,6.00
2022-10-12T22:43:54.039Z,5.63
2022-10-12T22:46:25.263Z,6.60
2022-10-12T22:48:53.405Z,6.35
2022-10-12T22:51:32.233Z,6.18
2022-10-12T22:54:00.335Z,6.50
2022-10-12T22:56:28.339Z,6.50
2022-10-12T22:58:57.174Z,5.97
2022-10-12T23:01:27.096Z,6.13
2022-10-12T23:03:55.787Z,5.88
2022-10-12T23:06:24.469Z,5.88
2022-10-12T23:08:52.576Z,6.25
2022-10-12T23:11:23.615Z,6.35
2022-10-12T23:13:51.553Z,6.15
2022-10-12T23:16:22.168Z,5.97
2022-10-12T23:18:58.959Z,7.22
2022-10-12T23:21:27.969Z,6.85
2022-10-12T23:23:55.771Z,6.15
2022-10-12T23:26:25.593Z,5.85
2022-10-12T23:28:54.940Z,6.30
2022-10-12T23:31:24.359Z,6.57
2022-10-12T23:33:58.171Z,5.30
2022-10-12T23:36:26.390Z,6.70
2022-10-12T23:38:54.333Z,6.97
2022-10-12T23:41:22.342Z,6.82
2022-10-12T23:43:50.063Z,5.93
2022-10-12T23:46:17.960Z,5.80
2022-10-12T23:48:45.693Z,6.97
2022-10-12T23:51:14.801Z,6.10
2022-10-12T23:53:43.136Z,5.32
2022-10-12T23:56:11.521Z,5.97
2022-10-12T23:58:40.903Z,6.32
